Time;durP1;ratioP1;P1;durP2;ratioP2;P2;SDS_P1;SDS_P2;PMS_P1;PMS_P2;Temp;Humidity;BMP_temperature;BMP_pressure;BME280_temperature;BME280_humidity;BME280_pressure;Samples;Min_cycle;Max_cycle;Signal;HPM_P1;HPM_P2
2022/04/23 00:02:11;;;;;;;14.48;11.85;;;;;;;;;;5010108;28;20503;-83
2022/04/23 00:04:37;;;;;;;13.27;11.23;;;;;;;;;;5013932;28;20459;-83
2022/04/23 00:07:05;;;;;;;16.45;12.07;;;;;;;;;;5007773;28;20496;-82
2022/04/23 00:09:31;;;;;;;14.52;12.10;;;;;;;;;;5006989;28;20427;-82
2022/04/23 00:11:58;;;;;;;13.93;11.25;;;;;;;;;;5010581;28;21420;-83
2022/04/23 00:14:25;;;;;;;18.15;12.30;;;;;;;;;;5012844;28;20428;-83
2022/04/23 00:16:53;;;;;;;13.40;10.90;;;;;;;;;;5008921;28;20436;-82
2022/04/23 00:19:19;;;;;;;15.02;12.52;;;;;;;;;;5013694;28;20475;-83
2022/04/23 00:21:46;;;;;;;16.42;12.57;;;;;;;;;;5016524;28;20981;-81
2022/04/23 00:24:12;;;;;;;13.68;12.25;;;;;;;;;;5009645;28;20432;-82
2022/04/23 00:26:39;;;;;;;13.20;11.90;;;;;;;;;;5013697;28;20965;-82
2022/04/23 00:29:06;;;;;;;13.63;11.90;;;;;;;;;;5002929;28;20515;-82
2022/04/23 00:33:59;;;;;;;13.07;11.68;;;;;;;;;;5046816;22;20934;-80
2022/04/23 00:36:28;;;;;;;14.50;13.00;;;;;;;;;;5029354;28;20508;-81
2022/04/23 00:38:54;;;;;;;14.20;12.80;;;;;;;;;;5030834;28;20454;-81
2022/04/23 00:44:04;;;;;;;13.20;11.90;;;;;;;;;;5011406;28;20442;-81
2022/04/23 00:46:31;;;;;;;17.15;13.65;;;;;;;;;;5005654;28;20938;-82
2022/04/23 00:48:58;;;;;;;14.35;12.95;;;;;;;;;;5009459;28;20569;-81
2022/04/23 00:51:26;;;;;;;14.27;12.77;;;;;;;;;;5012409;28;20511;-81
2022/04/23 00:53:53;;;;;;;13.77;12.40;;;;;;;;;;5009407;28;20483;-80
2022/04/23 00:56:19;;;;;;;15.13;12.80;;;;;;;;;;5013560;28;20431;-80
2022/04/23 00:58:46;;;;;;;14.82;13.02;;;;;;;;;;5010698;28;20420;-80
2022/04/23 01:01:13;;;;;;;14.32;12.93;;;;;;;;;;5007452;28;20438;-81
2022/04/23 01:03:40;;;;;;;13.60;12.32;;;;;;;;;;5011239;28;20508;-80
2022/04/23 01:06:07;;;;;;;14.35;12.95;;;;;;;;;;5010965;28;20531;-81
2022/04/23 01:08:34;;;;;;;14.37;12.70;;;;;;;;;;5007896;28;20424;-80
2022/04/23 01:11:00;;;;;;;15.95;13.20;;;;;;;;;;5010846;28;20432;-80
2022/04/23 01:13:27;;;;;;;14.00;12.70;;;;;;;;;;5005575;28;20483;-80
2022/04/23 01:16:00;;;;;;;13.88;12.48;;;;;;;;;;5006819;28;20857;-81
2022/04/23 01:18:26;;;;;;;13.98;12.57;;;;;;;;;;5010475;28;20922;-83
2022/04/23 01:20:54;;;;;;;14.60;13.20;;;;;;;;;;5008661;28;20504;-81
2022/04/23 01:23:20;;;;;;;14.38;12.88;;;;;;;;;;5003700;28;20929;-82
2022/04/23 01:25:49;;;;;;;14.30;12.52;;;;;;;;;;5006683;28;20436;-82
2022/04/23 01:28:15;;;;;;;14.80;13.40;;;;;;;;;;5010328;28;20518;-80
2022/04/23 01:30:41;;;;;;;15.90;14.27;;;;;;;;;;5008599;28;20512;-81
2022/04/23 01:33:07;;;;;;;14.23;12.73;;;;;;;;;;5010056;28;20483;-81
2022/04/23 01:35:34;;;;;;;13.80;12.50;;;;;;;;;;5012157;28;20424;-83
2022/04/23 01:38:01;;;;;;;14.57;13.07;;;;;;;;;;5004075;28;20503;-81
2022/04/23 01:40:28;;;;;;;13.95;12.50;;;;;;;;;;5012436;28;20424;-81
2022/04/23 01:42:54;;;;;;;14.20;12.80;;;;;;;;;;5005115;28;20916;-82
2022/04/23 01:45:20;;;;;;;14.90;13.40;;;;;;;;;;5013077;28;20486;-80
2022/04/23 01:47:46;;;;;;;14.40;12.82;;;;;;;;;;5006773;28;20416;-82
2022/04/23 01:50:13;;;;;;;15.20;13.60;;;;;;;;;;5009822;28;20428;-80
2022/04/23 01:52:39;;;;;;;14.90;13.37;;;;;;;;;;5004705;28;20471;-81
2022/04/23 01:55:07;;;;;;;14.57;13.10;;;;;;;;;;5010462;28;20483;-81
2022/04/23 01:57:33;;;;;;;14.95;13.48;;;;;;;;;;5012329;28;20463;-81
2022/04/23 01:59:59;;;;;;;15.27;13.67;;;;;;;;;;5009147;28;20538;-81
2022/04/23 02:02:26;;;;;;;15.00;12.98;;;;;;;;;;5004723;28;20416;-80
2022/04/23 02:04:52;;;;;;;14.82;13.43;;;;;;;;;;5008587;28;21031;-81
2022/04/23 02:07:18;;;;;;;14.35;12.88;;;;;;;;;;5012796;28;20416;-81
2022/04/23 02:09:44;;;;;;;13.80;12.40;;;;;;;;;;5003531;28;20432;-82
2022/04/23 02:12:12;;;;;;;14.43;12.93;;;;;;;;;;5008860;28;20490;-81
2022/04/23 02:14:38;;;;;;;14.35;12.90;;;;;;;;;;5004931;28;20474;-81
2022/04/23 02:17:05;;;;;;;15.13;13.40;;;;;;;;;;5007674;28;20486;-80
2022/04/23 02:19:32;;;;;;;14.73;12.82;;;;;;;;;;5003314;28;20444;-81
2022/04/23 02:21:58;;;;;;;15.35;13.57;;;;;;;;;;5008611;28;20413;-80
2022/04/23 02:24:24;;;;;;;14.02;12.50;;;;;;;;;;5010363;28;20823;-82
2022/04/23 02:26:50;;;;;;;14.30;12.80;;;;;;;;;;5010232;28;20841;-80
2022/04/23 02:29:18;;;;;;;14.48;12.98;;;;;;;;;;5010542;28;20429;-79
2022/04/23 02:31:44;;;;;;;14.80;13.30;;;;;;;;;;5007051;28;20432;-79
2022/04/23 02:34:11;;;;;;;14.40;12.90;;;;;;;;;;5008551;28;20439;-81
2022/04/23 02:36:37;;;;;;;14.30;12.80;;;;;;;;;;5007420;28;20432;-80
2022/04/23 02:39:04;;;;;;;14.77;13.15;;;;;;;;;;5006607;28;20436;-81
2022/04/23 02:41:30;;;;;;;14.32;12.90;;;;;;;;;;5010865;28;20433;-81
2022/04/23 02:43:57;;;;;;;15.05;13.48;;;;;;;;;;5009401;28;20483;-81
2022/04/23 02:46:25;;;;;;;14.13;12.40;;;;;;;;;;5007844;28;20515;-81
2022/04/23 02:48:52;;;;;;;13.98;12.48;;;;;;;;;;5009317;28;20926;-80
2022/04/23 02:51:18;;;;;;;15.63;13.95;;;;;;;;;;5005301;28;20486;-79
2022/04/23 02:53:44;;;;;;;16.23;13.23;;;;;;;;;;5002700;28;20499;-82
2022/04/23 02:56:13;;;;;;;14.87;13.37;;;;;;;;;;5010383;28;20841;-80
2022/04/23 02:58:40;;;;;;;14.40;13.00;;;;;;;;;;5008369;28;20434;-80
2022/04/23 03:01:09;;;;;;;15.30;13.27;;;;;;;;;;5008510;28;20432;-81
2022/04/23 03:03:38;;;;;;;14.25;12.68;;;;;;;;;;5006488;28;20417;-79
2022/04/23 03:06:05;;;;;;;15.13;13.23;;;;;;;;;;5008473;28;20523;-79
2022/04/23 03:08:31;;;;;;;15.20;13.20;;;;;;;;;;5002494;28;21422;-80
2022/04/23 03:10:57;;;;;;;14.05;12.65;;;;;;;;;;5007505;28;20435;-79
2022/04/23 03:13:24;;;;;;;16.90;14.00;;;;;;;;;;5005470;28;20428;-80
2022/04/23 03:15:50;;;;;;;15.50;13.35;;;;;;;;;;5007141;28;20965;-80
2022/04/23 03:18:17;;;;;;;14.68;13.15;;;;;;;;;;5008989;28;20432;-81
2022/04/23 03:20:45;;;;;;;14.30;12.57;;;;;;;;;;5007674;28;20490;-80
2022/04/23 03:23:12;;;;;;;16.98;13.98;;;;;;;;;;5010738;28;20424;-80
2022/04/23 03:25:38;;;;;;;14.85;13.30;;;;;;;;;;5005616;28;20476;-80
2022/04/23 03:28:05;;;;;;;14.23;12.73;;;;;;;;;;5009093;28;20487;-81
2022/04/23 03:30:31;;;;;;;15.75;13.35;;;;;;;;;;5004792;28;20487;-82
2022/04/23 03:32:58;;;;;;;14.65;13.07;;;;;;;;;;5009330;28;20416;-80
2022/04/23 03:35:24;;;;;;;13.90;12.13;;;;;;;;;;5008874;28;20432;-80
2022/04/23 03:37:52;;;;;;;13.90;12.40;;;;;;;;;;5006054;28;20425;-78
2022/04/23 03:40:18;;;;;;;15.77;13.43;;;;;;;;;;5010573;28;20424;-81
2022/04/23 03:42:48;;;;;;;14.23;12.82;;;;;;;;;;5004483;28;20432;-80
2022/04/23 03:45:15;;;;;;;15.17;13.00;;;;;;;;;;5011728;28;20428;-82
2022/04/23 03:47:44;;;;;;;15.45;12.65;;;;;;;;;;5009708;28;20422;-80
2022/04/23 03:50:10;;;;;;;14.40;12.37;;;;;;;;;;5006295;28;20964;-80
2022/04/23 03:52:36;;;;;;;13.55;12.15;;;;;;;;;;5008931;28;20424;-80
2022/04/23 03:55:04;;;;;;;14.07;12.63;;;;;;;;;;5010289;28;20444;-81
2022/04/23 03:57:32;;;;;;;14.40;12.90;;;;;;;;;;5009439;28;20523;-80
2022/04/23 03:59:59;;;;;;;14.45;12.93;;;;;;;;;;5002989;28;20444;-80
2022/04/23 04:02:25;;;;;;;14.75;13.13;;;;;;;;;;5011790;28;20430;-82
2022/04/23 04:04:52;;;;;;;15.00;13.40;;;;;;;;;;5007812;28;20490;-81
2022/04/23 04:07:19;;;;;;;13.32;11.93;;;;;;;;;;5008647;28;20518;-81
2022/04/23 04:09:45;;;;;;;14.07;12.60;;;;;;;;;;5009619;28;20925;-80
2022/04/23 04:12:12;;;;;;;15.10;12.10;;;;;;;;;;5009874;28;20416;-80
2022/04/23 04:14:39;;;;;;;15.15;12.35;;;;;;;;;;5005344;28;20416;-81
2022/04/23 04:17:07;;;;;;;14.75;12.50;;;;;;;;;;5010629;28;20432;-81
2022/04/23 04:19:34;;;;;;;13.80;12.30;;;;;;;;;;5009937;28;20451;-79
2022/04/23 04:22:02;;;;;;;14.02;12.57;;;;;;;;;;5008219;28;20429;-80
2022/04/23 04:24:28;;;;;;;16.87;12.40;;;;;;;;;;5008202;28;20484;-81
2022/04/23 04:26:55;;;;;;;14.82;12.40;;;;;;;;;;5010972;28;20953;-81
2022/04/23 04:29:23;;;;;;;13.70;11.85;;;;;;;;;;5007764;28;20429;-81
2022/04/23 04:31:49;;;;;;;14.93;12.55;;;;;;;;;;5005590;28;20494;-81
2022/04/23 04:34:15;;;;;;;13.85;11.82;;;;;;;;;;5011017;28;20421;-80
2022/04/23 04:36:41;;;;;;;14.88;13.13;;;;;;;;;;5010197;28;20442;-79
2022/04/23 04:39:08;;;;;;;14.38;11.40;;;;;;;;;;5007865;28;20463;-81
2022/04/23 04:41:35;;;;;;;13.95;12.55;;;;;;;;;;5011143;28;20440;-81
2022/04/23 04:44:01;;;;;;;13.50;12.10;;;;;;;;;;5006940;28;20496;-80
2022/04/23 04:46:29;;;;;;;13.23;11.82;;;;;;;;;;5004767;28;20441;-82
2022/04/23 04:48:55;;;;;;;13.65;12.18;;;;;;;;;;5001895;28;20924;-81
2022/04/23 04:51:21;;;;;;;14.20;11.60;;;;;;;;;;5002701;28;20454;-79
2022/04/23 04:53:48;;;;;;;13.45;11.98;;;;;;;;;;5006216;28;20434;-82
2022/04/23 04:56:14;;;;;;;15.98;13.20;;;;;;;;;;5008667;28;20436;-82
2022/04/23 04:58:43;;;;;;;14.30;12.30;;;;;;;;;;5007560;28;20435;-82
2022/04/23 05:01:09;;;;;;;14.00;12.50;;;;;;;;;;5009002;28;20432;-81
2022/04/23 05:03:38;;;;;;;13.40;12.00;;;;;;;;;;5012568;28;20443;-84
2022/04/23 05:06:04;;;;;;;13.90;12.40;;;;;;;;;;5012593;28;20441;-81
2022/04/23 05:08:31;;;;;;;14.30;12.80;;;;;;;;;;5002065;28;20412;-81
2022/04/23 05:10:57;;;;;;;13.07;11.70;;;;;;;;;;5012849;28;20424;-83
2022/04/23 05:13:23;;;;;;;13.23;11.67;;;;;;;;;;5011225;28;20483;-81
2022/04/23 05:15:49;;;;;;;13.63;11.95;;;;;;;;;;5014010;28;20421;-81
2022/04/23 05:18:15;;;;;;;13.53;12.20;;;;;;;;;;5010111;28;20532;-82
2022/04/23 05:20:43;;;;;;;12.90;11.50;;;;;;;;;;5007541;28;20448;-82
2022/04/23 05:23:09;;;;;;;13.75;12.20;;;;;;;;;;5008660;28;20483;-82
2022/04/23 05:25:36;;;;;;;14.18;12.68;;;;;;;;;;5007364;28;20432;-82
2022/04/23 05:28:02;;;;;;;14.43;12.70;;;;;;;;;;5003477;28;20426;-82
2022/04/23 05:30:28;;;;;;;13.40;11.80;;;;;;;;;;5013102;28;20453;-82
2022/04/23 05:32:54;;;;;;;13.50;12.20;;;;;;;;;;5009959;28;20423;-80
2022/04/23 05:35:21;;;;;;;14.00;12.50;;;;;;;;;;5008975;28;20429;-82
2022/04/23 05:37:48;;;;;;;13.40;12.00;;;;;;;;;;5006519;28;20836;-82
2022/04/23 05:40:15;;;;;;;13.27;11.98;;;;;;;;;;5003722;28;20436;-82
2022/04/23 05:42:41;;;;;;;14.90;13.40;;;;;;;;;;5007335;28;20420;-81
2022/04/23 05:45:07;;;;;;;15.57;12.75;;;;;;;;;;5009288;28;20435;-80
2022/04/23 05:47:34;;;;;;;14.10;12.45;;;;;;;;;;5008127;28;20479;-81
2022/04/23 05:50:00;;;;;;;14.40;12.50;;;;;;;;;;4990827;28;20461;-82
2022/04/23 05:52:26;;;;;;;13.38;11.95;;;;;;;;;;4983979;28;21442;-81
2022/04/23 05:54:54;;;;;;;15.05;13.40;;;;;;;;;;4977542;28;20516;-81
2022/04/23 05:57:20;;;;;;;13.80;12.40;;;;;;;;;;4986319;28;20452;-83
2022/04/23 05:59:46;;;;;;;13.50;12.03;;;;;;;;;;5004956;28;20441;-83
2022/04/23 06:02:13;;;;;;;14.60;13.10;;;;;;;;;;5006229;28;20491;-81
2022/04/23 06:04:39;;;;;;;13.98;12.57;;;;;;;;;;5012318;28;20826;-83
2022/04/23 06:07:06;;;;;;;15.90;14.20;;;;;;;;;;5009607;28;20451;-83
2022/04/23 06:09:32;;;;;;;14.77;12.90;;;;;;;;;;5012212;28;20486;-81
2022/04/23 06:12:00;;;;;;;14.98;13.38;;;;;;;;;;5012117;28;20414;-83
2022/04/23 06:14:26;;;;;;;15.32;13.82;;;;;;;;;;5007083;28;20799;-81
2022/04/23 06:16:52;;;;;;;15.00;13.50;;;;;;;;;;5010596;28;20907;-81
2022/04/23 06:19:18;;;;;;;15.05;13.65;;;;;;;;;;5004234;28;20455;-80
2022/04/23 06:21:44;;;;;;;15.70;14.10;;;;;;;;;;5006169;28;20447;-79
2022/04/23 06:24:11;;;;;;;17.57;14.20;;;;;;;;;;5003932;28;20495;-81
2022/04/23 06:26:38;;;;;;;14.75;13.30;;;;;;;;;;5008142;28;20487;-80
2022/04/23 06:29:05;;;;;;;15.80;14.15;;;;;;;;;;5009461;28;20519;-81
2022/04/23 06:31:31;;;;;;;16.17;14.48;;;;;;;;;;5000139;28;20732;-82
2022/04/23 06:33:58;;;;;;;17.95;15.13;;;;;;;;;;5004068;28;20443;-80
2022/04/23 06:36:24;;;;;;;14.95;13.45;;;;;;;;;;5032829;22;20477;-80
2022/04/23 06:38:50;;;;;;;14.52;13.02;;;;;;;;;;5006011;28;20903;-79
2022/04/23 06:41:17;;;;;;;15.18;13.68;;;;;;;;;;5008665;28;20476;-80
2022/04/23 06:43:44;;;;;;;16.35;13.70;;;;;;;;;;5007282;28;20507;-80
2022/04/23 06:46:11;;;;;;;15.85;14.15;;;;;;;;;;5010772;28;20962;-79
2022/04/23 06:48:38;;;;;;;16.38;14.35;;;;;;;;;;5009962;28;20830;-79
2022/04/23 06:51:04;;;;;;;15.55;13.95;;;;;;;;;;5003705;28;20514;-79
2022/04/23 06:53:30;;;;;;;16.05;14.35;;;;;;;;;;5002713;28;20490;-79
2022/04/23 06:55:57;;;;;;;15.50;14.00;;;;;;;;;;4998740;28;20890;-79
2022/04/23 06:58:23;;;;;;;15.60;14.00;;;;;;;;;;5003747;28;21202;-78
2022/04/23 07:00:49;;;;;;;14.52;13.02;;;;;;;;;;4999853;28;20504;-80
2022/04/23 07:03:17;;;;;;;15.38;13.77;;;;;;;;;;5018695;28;20421;-80
2022/04/23 07:05:43;;;;;;;14.65;12.90;;;;;;;;;;5010917;28;20443;-79
2022/04/23 07:08:09;;;;;;;16.48;13.60;;;;;;;;;;5008019;28;20423;-78
2022/04/23 07:10:36;;;;;;;15.80;14.30;;;;;;;;;;5017027;28;20500;-79
2022/04/23 07:13:03;;;;;;;14.30;13.00;;;;;;;;;;4998621;28;20430;-77
2022/04/23 07:15:29;;;;;;;16.52;14.00;;;;;;;;;;5002633;28;20429;-79
2022/04/23 07:17:56;;;;;;;14.15;12.60;;;;;;;;;;5007415;28;20425;-79
2022/04/23 07:20:24;;;;;;;15.47;13.97;;;;;;;;;;5000185;28;20433;-79
2022/04/23 07:25:35;;;;;;;16.08;13.85;;;;;;;;;;5004772;28;20786;-78
2022/04/23 07:28:02;;;;;;;16.00;13.80;;;;;;;;;;4997826;28;21138;-79
2022/04/23 07:30:29;;;;;;;15.50;13.90;;;;;;;;;;5002134;28;20827;-78
2022/04/23 07:32:55;;;;;;;15.55;13.90;;;;;;;;;;5003646;28;20467;-77
2022/04/23 07:38:11;;;;;;;16.50;14.88;;;;;;;;;;5003698;28;20415;-78
2022/04/23 07:40:40;;;;;;;15.60;14.10;;;;;;;;;;5001516;28;20485;-79
2022/04/23 07:43:07;;;;;;;15.85;14.20;;;;;;;;;;5007732;28;20424;-78
2022/04/23 07:45:33;;;;;;;16.42;14.82;;;;;;;;;;5010122;28;20452;-81
2022/04/23 07:47:59;;;;;;;17.20;15.50;;;;;;;;;;5002589;28;20409;-76
2022/04/23 07:50:27;;;;;;;16.00;14.50;;;;;;;;;;5005879;28;20526;-78
2022/04/23 07:52:53;;;;;;;15.48;13.77;;;;;;;;;;5004293;28;20429;-79
2022/04/23 07:55:19;;;;;;;16.15;14.65;;;;;;;;;;5002627;28;20432;-79
2022/04/23 07:57:45;;;;;;;16.75;15.15;;;;;;;;;;4993582;28;20800;-78
2022/04/23 08:00:12;;;;;;;16.00;14.40;;;;;;;;;;5005817;28;20834;-79
2022/04/23 08:02:38;;;;;;;15.97;14.37;;;;;;;;;;5000558;28;20418;-79
2022/04/23 08:05:05;;;;;;;15.65;14.07;;;;;;;;;;5009020;28;20443;-78
2022/04/23 08:07:33;;;;;;;15.35;13.85;;;;;;;;;;5001787;28;20477;-79
2022/04/23 08:09:59;;;;;;;15.73;14.23;;;;;;;;;;5002403;28;20500;-79
2022/04/23 08:12:25;;;;;;;14.63;13.13;;;;;;;;;;5005127;28;20436;-79
2022/04/23 08:14:52;;;;;;;16.08;13.25;;;;;;;;;;5004817;28;20436;-79
2022/04/23 08:17:18;;;;;;;14.40;13.00;;;;;;;;;;5007654;28;20420;-80
2022/04/23 08:19:44;;;;;;;14.07;12.68;;;;;;;;;;5004395;28;20500;-77
2022/04/23 08:22:11;;;;;;;13.18;11.88;;;;;;;;;;5003210;28;20433;-79
2022/04/23 08:24:39;;;;;;;14.05;12.65;;;;;;;;;;4999670;28;21040;-79
2022/04/23 08:27:05;;;;;;;13.52;12.23;;;;;;;;;;5008703;28;20488;-79
2022/04/23 08:32:15;;;;;;;12.60;11.40;;;;;;;;;;5004975;28;20417;-78
2022/04/23 08:34:41;;;;;;;11.98;10.77;;;;;;;;;;5004510;28;20436;-79
2022/04/23 08:37:08;;;;;;;11.88;10.75;;;;;;;;;;5008856;28;20783;-79
2022/04/23 08:39:34;;;;;;;12.02;10.93;;;;;;;;;;5007687;28;20433;-79
2022/04/23 08:42:02;;;;;;;11.27;10.18;;;;;;;;;;5002745;28;20495;-79
2022/04/23 08:44:29;;;;;;;11.35;10.35;;;;;;;;;;5003885;28;20462;-80
2022/04/23 08:46:56;;;;;;;12.50;11.30;;;;;;;;;;5007094;28;20412;-79
2022/04/23 08:49:28;;;;;;;12.10;11.00;;;;;;;;;;5003006;28;20531;-79
2022/04/23 08:51:55;;;;;;;12.60;10.20;;;;;;;;;;5006648;28;20424;-78
2022/04/23 08:54:23;;;;;;;12.90;9.57;;;;;;;;;;5009310;28;20412;-79
2022/04/23 08:56:50;;;;;;;10.93;9.82;;;;;;;;;;5008149;28;20475;-79
2022/04/23 08:59:20;;;;;;;10.00;9.00;;;;;;;;;;5004985;28;20437;-79
2022/04/23 09:01:46;;;;;;;9.88;8.88;;;;;;;;;;5001991;28;20479;-80
2022/04/23 09:04:13;;;;;;;10.70;9.60;;;;;;;;;;5003744;28;20438;-79
2022/04/23 09:06:40;;;;;;;10.05;9.15;;;;;;;;;;5012669;28;20433;-79
2022/04/23 09:09:07;;;;;;;10.90;9.70;;;;;;;;;;5011367;28;20432;-79
2022/04/23 09:11:35;;;;;;;10.60;9.07;;;;;;;;;;5002815;28;20437;-79
2022/04/23 09:14:01;;;;;;;10.40;9.40;;;;;;;;;;5007757;28;20531;-80
2022/04/23 09:24:45;;;;;;;9.68;8.68;;;;;;;;;;5013718;28;20424;-79
2022/04/23 09:27:12;;;;;;;9.88;8.98;;;;;;;;;;5005138;28;20481;-79
2022/04/23 09:29:38;;;;;;;10.00;8.98;;;;;;;;;;5009043;28;20460;-80
2022/04/23 09:32:14;;;;;;;9.80;8.00;;;;;;;;;;4998826;28;20420;-80
2022/04/23 09:34:41;;;;;;;9.80;8.30;;;;;;;;;;4998309;28;20459;-80
2022/04/23 09:37:08;;;;;;;10.30;8.15;;;;;;;;;;5004465;28;20848;-79
2022/04/23 09:39:35;;;;;;;9.57;8.57;;;;;;;;;;5008832;28;20436;-79
2022/04/23 09:42:11;;;;;;;9.37;8.37;;;;;;;;;;5003638;28;20429;-77
2022/04/23 09:44:37;;;;;;;9.60;7.95;;;;;;;;;;5013535;28;20516;-80
2022/04/23 09:47:04;;;;;;;8.13;6.97;;;;;;;;;;5004886;28;20438;-79
2022/04/23 09:49:32;;;;;;;8.13;7.32;;;;;;;;;;4999027;28;20514;-80
2022/04/23 09:52:02;;;;;;;7.30;6.60;;;;;;;;;;5003060;28;20469;-79
2022/04/23 09:54:30;;;;;;;8.85;6.40;;;;;;;;;;4992909;28;22019;-79
2022/04/23 09:56:57;;;;;;;6.78;6.18;;;;;;;;;;4999674;28;20409;-79
2022/04/23 09:59:24;;;;;;;7.80;5.87;;;;;;;;;;5004332;28;20460;-80
2022/04/23 10:01:50;;;;;;;7.50;6.82;;;;;;;;;;5002103;28;20540;-79
2022/04/23 10:04:20;;;;;;;8.60;7.20;;;;;;;;;;5002827;28;20436;-79
2022/04/23 10:06:48;;;;;;;7.40;6.70;;;;;;;;;;5002242;28;20429;-79
2022/04/23 10:09:18;;;;;;;7.90;7.10;;;;;;;;;;5009538;28;20450;-79
2022/04/23 10:11:44;;;;;;;6.53;5.93;;;;;;;;;;4999826;28;20806;-78
2022/04/23 10:14:13;;;;;;;7.10;6.40;;;;;;;;;;5012815;28;20549;-79
2022/04/23 10:16:41;;;;;;;6.28;5.68;;;;;;;;;;4999215;28;20434;-80
2022/04/23 10:19:08;;;;;;;8.80;5.65;;;;;;;;;;5000225;28;20464;-81
2022/04/23 10:21:39;;;;;;;6.72;5.70;;;;;;;;;;5007152;28;20490;-79
2022/04/23 10:24:08;;;;;;;6.00;5.50;;;;;;;;;;5009026;28;20437;-79
2022/04/23 10:26:42;;;;;;;6.53;4.72;;;;;;;;;;5002964;28;20442;-79
2022/04/23 10:29:09;;;;;;;5.20;4.80;;;;;;;;;;5003759;28;20499;-79
2022/04/23 10:31:35;;;;;;;6.32;5.43;;;;;;;;;;5004444;28;20451;-78
2022/04/23 10:34:01;;;;;;;6.20;5.10;;;;;;;;;;5009436;28;20508;-79
2022/04/23 10:36:28;;;;;;;5.15;4.65;;;;;;;;;;5003460;28;20433;-79
2022/04/23 10:39:09;;;;;;;5.53;4.93;;;;;;;;;;5003712;28;20430;-82
2022/04/23 10:41:36;;;;;;;6.68;4.32;;;;;;;;;;5008835;28;20502;-80
2022/04/23 10:44:04;;;;;;;6.40;5.00;;;;;;;;;;5007611;28;20494;-79
2022/04/23 10:46:43;;;;;;;4.85;4.28;;;;;;;;;;4998778;28;20928;-79
2022/04/23 10:49:13;;;;;;;5.20;4.70;;;;;;;;;;5004391;28;20437;-79
2022/04/23 10:51:46;;;;;;;6.18;4.95;;;;;;;;;;5006098;28;20436;-78
2022/04/23 10:54:12;;;;;;;7.70;4.95;;;;;;;;;;5006426;28;20525;-81
2022/04/23 10:56:40;;;;;;;4.80;4.35;;;;;;;;;;5018190;28;20432;-80
2022/04/23 10:59:29;;;;;;;5.32;4.82;;;;;;;;;;5004433;28;20432;-80
2022/04/23 11:02:02;;;;;;;5.38;4.60;;;;;;;;;;5000833;28;20409;-80
2022/04/23 11:04:28;;;;;;;4.45;4.03;;;;;;;;;;5005447;28;20464;-79
2022/04/23 11:12:35;;;;;;;6.40;5.40;;;;;;;;;;5007769;28;20506;-81
2022/04/23 11:15:02;;;;;;;5.90;5.30;;;;;;;;;;5007235;28;20439;-79
2022/04/23 11:17:53;;;;;;;5.60;5.00;;;;;;;;;;5012871;28;20424;-81
2022/04/23 11:20:32;;;;;;;6.90;5.20;;;;;;;;;;5004964;28;20438;-80
2022/04/23 11:23:00;;;;;;;5.20;4.70;;;;;;;;;;5010829;28;20824;-82
2022/04/23 11:25:26;;;;;;;5.45;4.95;;;;;;;;;;5007711;28;20414;-80
2022/04/23 11:28:00;;;;;;;4.80;3.92;;;;;;;;;;5008863;28;20936;-80
2022/04/23 11:30:28;;;;;;;6.43;4.45;;;;;;;;;;5004653;28;20442;-82
2022/04/23 11:32:54;;;;;;;6.20;5.60;;;;;;;;;;5011800;28;20432;-81
2022/04/23 11:35:27;;;;;;;5.45;4.95;;;;;;;;;;5021802;28;20490;-82
2022/04/23 11:37:54;;;;;;;7.00;5.60;;;;;;;;;;5009550;28;20950;-81
2022/04/23 11:40:24;;;;;;;9.68;5.80;;;;;;;;;;5009363;28;20638;-81
2022/04/23 11:42:50;;;;;;;5.53;5.03;;;;;;;;;;5022705;28;20413;-80
2022/04/23 11:45:18;;;;;;;5.85;5.25;;;;;;;;;;5015731;28;20495;-78
2022/04/23 11:47:45;;;;;;;5.40;5.00;;;;;;;;;;5009676;28;20488;-81
2022/04/23 11:50:12;;;;;;;6.07;5.47;;;;;;;;;;5013162;28;20440;-81
2022/04/23 11:52:38;;;;;;;5.70;5.20;;;;;;;;;;5005601;28;20426;-77
2022/04/23 11:55:05;;;;;;;5.97;5.47;;;;;;;;;;5007848;28;20425;-80
2022/04/23 11:57:31;;;;;;;5.00;4.60;;;;;;;;;;5012919;28;20465;-83
2022/04/23 12:00:00;;;;;;;6.40;5.57;;;;;;;;;;5012425;28;20459;-81
2022/04/23 12:02:28;;;;;;;5.75;5.25;;;;;;;;;;5016369;28;20491;-81
2022/04/23 12:04:57;;;;;;;7.38;5.18;;;;;;;;;;5019849;28;20428;-80
2022/04/23 12:07:24;;;;;;;6.30;5.70;;;;;;;;;;5015931;28;20861;-80
2022/04/23 12:09:51;;;;;;;5.90;5.40;;;;;;;;;;5023101;28;20432;-82
2022/04/23 12:12:19;;;;;;;5.32;4.82;;;;;;;;;;5017272;28;20537;-81
2022/04/23 12:14:46;;;;;;;5.70;5.30;;;;;;;;;;5016323;28;20444;-81
2022/04/23 12:17:19;;;;;;;5.20;4.70;;;;;;;;;;5009860;28;20714;-81
2022/04/23 12:19:47;;;;;;;4.88;4.50;;;;;;;;;;5013164;28;20479;-81
2022/04/23 12:22:21;;;;;;;4.68;4.25;;;;;;;;;;5019572;28;20409;-80
2022/04/23 12:24:48;;;;;;;4.90;4.40;;;;;;;;;;5014183;28;20443;-81
2022/04/23 12:27:14;;;;;;;6.53;4.60;;;;;;;;;;5020481;28;20424;-81
2022/04/23 12:40:47;;;;;;;4.90;4.50;;;;;;;;;;5009381;28;20469;-83
2022/04/23 12:43:20;;;;;;;4.47;4.07;;;;;;;;;;5006556;28;20799;-83
2022/04/23 12:45:47;;;;;;;4.40;4.00;;;;;;;;;;5012991;28;20894;-84
2022/04/23 12:48:14;;;;;;;4.90;4.50;;;;;;;;;;5002509;28;20942;-84
2022/04/23 12:50:42;;;;;;;4.90;4.50;;;;;;;;;;5000372;28;20483;-83
2022/04/23 12:53:09;;;;;;;5.20;4.80;;;;;;;;;;5009794;28;20431;-83
2022/04/23 12:55:37;;;;;;;4.88;4.47;;;;;;;;;;5011646;28;21251;-84
2022/04/23 12:58:07;;;;;;;4.60;4.20;;;;;;;;;;5009528;28;20417;-82
2022/04/23 13:00:35;;;;;;;4.97;4.40;;;;;;;;;;5008291;28;20448;-84
2022/04/23 13:03:12;;;;;;;5.63;5.13;;;;;;;;;;5004261;28;20856;-83
2022/04/23 13:05:38;;;;;;;5.90;5.40;;;;;;;;;;5000889;28;20441;-82
2022/04/23 13:10:50;;;;;;;5.30;4.90;;;;;;;;;;5011703;28;20404;-84
2022/04/23 13:13:17;;;;;;;5.43;4.88;;;;;;;;;;5007242;28;20436;-82
2022/04/23 13:15:43;;;;;;;5.28;4.78;;;;;;;;;;4998035;28;20647;-84
2022/04/23 13:18:09;;;;;;;5.50;4.88;;;;;;;;;;5005473;28;20802;-82
2022/04/23 13:20:35;;;;;;;5.00;4.60;;;;;;;;;;4998797;28;20436;-84
2022/04/23 13:23:02;;;;;;;4.90;4.50;;;;;;;;;;5009609;28;20930;-84
2022/04/23 13:25:29;;;;;;;6.93;5.03;;;;;;;;;;5010811;28;22455;-84
2022/04/23 13:27:56;;;;;;;5.32;4.82;;;;;;;;;;5001002;28;20435;-84
2022/04/23 13:30:22;;;;;;;5.65;4.93;;;;;;;;;;5002875;28;20516;-83
2022/04/23 13:32:49;;;;;;;5.40;4.90;;;;;;;;;;5006817;28;20433;-84
2022/04/23 13:35:16;;;;;;;5.70;5.20;;;;;;;;;;5000277;28;20445;-83
2022/04/23 13:37:43;;;;;;;6.15;5.25;;;;;;;;;;5010576;28;20520;-85
2022/04/23 13:40:10;;;;;;;5.70;5.30;;;;;;;;;;5011262;28;21716;-84
2022/04/23 13:42:39;;;;;;;5.60;5.10;;;;;;;;;;5006825;28;20423;-84
2022/04/23 13:45:06;;;;;;;6.20;5.60;;;;;;;;;;5009991;28;20489;-85
2022/04/23 13:47:33;;;;;;;5.85;5.35;;;;;;;;;;4999248;28;20438;-84
2022/04/23 13:49:59;;;;;;;5.10;4.60;;;;;;;;;;5001289;28;20464;-84
2022/04/23 13:52:26;;;;;;;5.75;4.80;;;;;;;;;;5008369;28;20482;-83
2022/04/23 13:54:52;;;;;;;5.07;4.67;;;;;;;;;;5000933;28;20463;-84
2022/04/23 13:57:18;;;;;;;6.10;5.10;;;;;;;;;;5003558;28;20433;-82
2022/04/23 13:59:46;;;;;;;5.30;4.80;;;;;;;;;;4995866;28;20440;-82
2022/04/23 14:10:35;;;;;;;5.60;5.10;;;;;;;;;;4979243;28;20435;-84
2022/04/23 14:13:02;;;;;;;6.70;4.50;;;;;;;;;;5006088;28;20470;-84
2022/04/23 14:15:30;;;;;;;5.50;5.00;;;;;;;;;;4999663;28;20438;-85
2022/04/23 14:17:58;;;;;;;6.20;5.60;;;;;;;;;;5002929;28;20503;-84
2022/04/23 14:20:25;;;;;;;6.00;5.40;;;;;;;;;;4997612;28;20440;-83
2022/04/23 14:22:51;;;;;;;5.70;5.20;;;;;;;;;;5001714;28;20440;-84
2022/04/23 14:25:18;;;;;;;6.30;5.70;;;;;;;;;;5000101;28;20494;-83
2022/04/23 14:27:45;;;;;;;5.80;5.20;;;;;;;;;;4993210;28;20430;-84
2022/04/23 14:30:11;;;;;;;6.37;5.87;;;;;;;;;;5003848;28;20443;-84
2022/04/23 14:32:39;;;;;;;6.60;6.00;;;;;;;;;;5001198;28;20432;-83
2022/04/23 14:35:07;;;;;;;6.85;6.13;;;;;;;;;;4996870;28;20438;-83
2022/04/23 14:37:33;;;;;;;6.32;5.82;;;;;;;;;;5000920;28;20448;-84
2022/04/23 14:40:00;;;;;;;6.40;5.90;;;;;;;;;;5006682;28;20436;-86
2022/04/23 14:42:26;;;;;;;6.37;5.77;;;;;;;;;;5004086;28;20471;-85
2022/04/23 14:44:52;;;;;;;7.20;6.50;;;;;;;;;;5004749;28;20868;-84
2022/04/23 14:47:18;;;;;;;6.38;5.82;;;;;;;;;;4999017;28;20419;-83
2022/04/23 14:49:46;;;;;;;8.40;6.00;;;;;;;;;;5005756;28;20440;-83
2022/04/23 14:54:56;;;;;;;7.13;6.53;;;;;;;;;;5006277;28;20423;-83
2022/04/23 14:57:22;;;;;;;6.00;5.40;;;;;;;;;;5001279;28;20480;-84
2022/04/23 14:59:48;;;;;;;6.72;6.13;;;;;;;;;;5007513;28;20719;-84
2022/04/23 15:02:15;;;;;;;7.00;5.45;;;;;;;;;;5004611;28;20420;-83
2022/04/23 15:04:41;;;;;;;6.15;5.65;;;;;;;;;;5004065;28;20456;-83
2022/04/23 15:07:08;;;;;;;6.40;5.63;;;;;;;;;;5001865;28;20412;-84
2022/04/23 15:09:35;;;;;;;6.45;5.10;;;;;;;;;;5000694;28;20488;-85
2022/04/23 15:12:01;;;;;;;7.30;6.60;;;;;;;;;;5001616;28;20483;-86
2022/04/23 15:14:28;;;;;;;6.37;5.87;;;;;;;;;;5006753;28;20432;-85
2022/04/23 15:16:54;;;;;;;6.53;5.97;;;;;;;;;;4994196;28;20501;-85
2022/04/23 15:19:20;;;;;;;6.07;5.57;;;;;;;;;;5003363;28;20423;-86